This demonstration page uses our WeatherBlox Daily Observations layout. Learn more.

39.29038, -76.61219

Hourly Observations for December 14, 2017

Temp ( °F °C ) Dew Point ( °F °C ) Humidity (%) Winds ( mph kmh ) Pressure ( in mb ) Visibility ( mi km ) Precip ( " mm )
12:54 am 00:54 undefined 35 1.7 19 -7.2 52 52 undefined N/A 29.56 1001 N/A 0 0
1:54 am 01:54 undefined 35 1.7 19 -7.2 52 52 undefined N/A 29.53 1000 N/A 0 0
2:54 am 02:54 undefined 35 1.7 19 -7.2 52 52 undefined N/A 32.45 1099 N/A 0 0
3:54 am 03:54 undefined 35 1.7 21 -6.1 57 57 undefined N/A 32.45 1099 N/A 0 0
4:54 am 04:54 undefined 36 2.2 20 -6.7 52 52 undefined N/A 32.45 1099 N/A 0 0
5:54 am 05:54 undefined 37 2.8 21 -6.1 52 52 undefined N/A 29.53 1000 N/A 0 0
6:54 am 06:54 undefined 38 3.3 20 -6.7 48 48 undefined N/A 29.59 1002 N/A 0 0
7:54 am 07:54 undefined 38 3.3 21 -6.1 51 51 undefined N/A 29.62 1003 N/A 0 0
8:54 am 08:54 undefined 40 4.4 25 -3.9 55 55 undefined N/A 29.68 1005 N/A 0 0
9:54 am 09:54 undefined 39 3.9 26 -3.3 60 60 undefined N/A 29.74 1007 N/A 0 0
10:54 am 10:54 undefined 39 3.9 22 -5.6 50 50 undefined N/A 29.8 1009 N/A 0 0
11:54 am 11:54 undefined 38 3.3 18 -7.8 44 44 undefined N/A 29.85 1011 N/A 0 0
12:54 pm 12:54 undefined 39 3.9 17 -8.3 41 41 undefined N/A 29.85 1011 N/A 0 0
1:54 pm 13:54 undefined 38 3.3 14 -10 37 37 undefined N/A 29.88 1012 N/A 0 0
2:54 pm 14:54 undefined 38 3.3 14 -10 37 37 undefined N/A 29.88 1012 N/A 0 0
3:54 pm 15:54 undefined 38 3.3 14 -10 37 37 undefined N/A 29.91 1013 N/A 0 0
4:54 pm 16:54 undefined 36 2.2 13 -10.6 39 39 undefined N/A 29.94 1014 N/A 0 0
5:54 pm 17:54 undefined 35 1.7 13 -10.6 40 40 undefined N/A 30 1016 N/A 0 0
6:54 pm 18:54 undefined 35 1.7 13 -10.6 40 40 undefined N/A 30.03 1017 N/A 0 0
7:54 pm 19:54 undefined 34 1.1 13 -10.6 42 42 undefined N/A 30.06 1018 N/A 0 0
8:54 pm 20:54 undefined 34 1.1 14 -10 44 44 undefined N/A 30.06 1018 N/A 0 0
9:54 pm 21:54 undefined 33 0.6 9 -12.8 36 36 undefined N/A 30.09 1019 N/A 0 0
10:54 pm 22:54 undefined 32 0 9 -12.8 38 38 undefined N/A 30.09 1019 N/A 0 0
11:54 pm 23:54 undefined 31 -0.6 11 -11.7 43 43 undefined N/A 30.09 1019 N/A 0 0

Powered by AerisWeather